Terminal Aerodrome Forecast
Issued by NWS

Home | Current Version | Previous Version | Text Only | Print | Product List | Glossary On
Versions: 1 2 3 4 5 6 7 8 9 10 11 12 13 14 15 16 17 18
676
FTUS42 KTBW 192331
TAFPGD
TAF
KPGD 192331Z 2000/2024 06005KT P6SM SCT250
     FM200400 05003KT P6SM BKN200
     FM201400 07006KT P6SM SCT030 OVC200=

USA.gov is the U.S. government's official web portal to all federal, state and local government web resources and services.